Wakefield, New Hampshire
Current Conditions -  °F | °C
As of 2:35 PM on Monday 22 Dec 2014 (Local Time) from KSFM Reporting Station
Overcast Overcast  
Wind Chill: 32°   Ceiling: 1600
Heat Index: 37°   Visibility: 10mi
Dew Point: 28°   Wind: 7mph
Humidity: 70%   Direction: 20°NNE
Pressure: 30.36"   Gusts: NA
Location:  43.5632°N, 71.0133°W
Report Text: KSFM 221935Z AUTO 02006KT 10SM BKN016 OVC050 03/M02 A3036 RMK AO1
Loading
Personal Weather Stations






























Interactive Weather Map New forecast layout! Learn more

10-Day Weather Forecast

Advertisements
Track Severe Weather on mobile